createdAt,value
2019-05-17T00:11:56.808Z,12.40
2019-05-17T00:14:30.063Z,18.02
2019-05-17T00:16:59.763Z,18.15
2019-05-17T00:19:29.688Z,17.90
2019-05-17T00:22:02.176Z,17.25
2019-05-17T00:24:32.342Z,17.40
2019-05-17T00:27:02.459Z,17.05
2019-05-17T00:29:32.294Z,17.32
2019-05-17T00:32:01.755Z,16.93
2019-05-17T00:34:31.672Z,17.42
2019-05-17T00:37:04.007Z,17.10
2019-05-17T00:39:36.501Z,16.50
2019-05-17T00:42:07.210Z,16.97
2019-05-17T00:44:37.029Z,18.00
2019-05-17T00:47:09.572Z,16.90
2019-05-17T00:49:39.866Z,16.90
2019-05-17T00:52:09.537Z,17.17
2019-05-17T00:54:49.269Z,17.50
2019-05-17T00:57:20.712Z,17.10
2019-05-17T00:59:50.523Z,17.03
2019-05-17T01:02:20.691Z,17.25
2019-05-17T01:04:50.978Z,18.05
2019-05-17T01:07:21.008Z,18.00
2019-05-17T01:09:52.245Z,17.97
2019-05-17T01:12:21.356Z,17.65
2019-05-17T01:14:50.875Z,18.17
2019-05-17T01:17:21.421Z,18.25
2019-05-17T01:19:51.624Z,17.97
2019-05-17T01:22:27.111Z,19.48
2019-05-17T01:24:57.868Z,19.15
2019-05-17T01:27:27.452Z,19.02
2019-05-17T01:29:58.168Z,19.95
2019-05-17T01:32:29.362Z,19.10
2019-05-17T01:34:59.758Z,19.42
2019-05-17T01:37:29.642Z,19.62
2019-05-17T01:39:59.121Z,20.27
2019-05-17T01:42:29.385Z,19.73
2019-05-17T01:45:00.968Z,18.90
2019-05-17T01:47:30.400Z,19.02
2019-05-17T01:50:02.532Z,18.77
2019-05-17T01:52:36.927Z,19.30
2019-05-17T01:55:06.790Z,19.65
2019-05-17T01:57:37.230Z,19.77
2019-05-17T02:00:07.640Z,19.15
2019-05-17T02:02:39.915Z,19.70
2019-05-17T02:05:09.818Z,18.25
2019-05-17T02:07:39.139Z,20.37
2019-05-17T02:10:13.015Z,19.93
2019-05-17T02:12:43.082Z,19.23
2019-05-17T02:15:16.542Z,18.55
2019-05-17T02:17:46.800Z,19.97
2019-05-17T02:20:17.213Z,18.52
2019-05-17T02:22:47.635Z,19.97
2019-05-17T02:25:20.528Z,19.77
2019-05-17T02:27:52.355Z,20.35
2019-05-17T02:30:23.310Z,20.77
2019-05-17T02:32:54.389Z,20.27
2019-05-17T02:35:24.046Z,19.27
2019-05-17T02:37:53.628Z,18.67
2019-05-17T02:40:23.481Z,19.55
2019-05-17T02:42:55.844Z,19.92
2019-05-17T02:45:25.192Z,19.25
2019-05-17T02:47:56.694Z,18.92
2019-05-17T02:50:25.779Z,19.10
2019-05-17T02:52:55.598Z,19.82
2019-05-17T02:55:24.885Z,20.12
2019-05-17T02:57:55.285Z,20.55
2019-05-17T03:00:26.749Z,20.05
2019-05-17T03:03:03.010Z,19.82
2019-05-17T03:05:33.746Z,20.57
2019-05-17T03:08:04.247Z,20.12
2019-05-17T03:10:36.352Z,19.33
2019-05-17T03:13:06.303Z,20.30
2019-05-17T03:15:36.528Z,19.35
2019-05-17T03:18:06.053Z,19.60
2019-05-17T03:20:35.376Z,18.70
2019-05-17T03:23:05.624Z,19.70
2019-05-17T03:25:35.305Z,18.92
2019-05-17T03:28:04.432Z,19.17
2019-05-17T03:30:37.191Z,19.90
2019-05-17T03:33:07.996Z,20.35
2019-05-17T03:35:38.774Z,19.75
2019-05-17T03:38:08.415Z,20.02
2019-05-17T03:41:03.292Z,16.93
2019-05-17T03:43:13.584Z,16.20
2019-05-17T03:45:42.638Z,16.17
2019-05-17T03:48:13.035Z,15.77
2019-05-17T03:50:43.597Z,16.67
2019-05-17T03:53:14.507Z,16.20
2019-05-17T03:55:47.278Z,16.43
2019-05-17T03:58:16.808Z,16.97
2019-05-17T04:00:48.826Z,17.47
2019-05-17T04:03:18.377Z,17.80
2019-05-17T04:05:52.663Z,17.67
2019-05-17T04:08:22.929Z,20.95
2019-05-17T04:10:52.962Z,20.80
2019-05-17T04:13:23.676Z,21.02
2019-05-17T04:15:55.257Z,21.10
2019-05-17T04:18:24.837Z,20.60
2019-05-17T04:20:55.132Z,21.02
2019-05-17T04:23:24.608Z,20.67
2019-05-17T04:25:54.540Z,20.88
2019-05-17T04:28:24.302Z,20.52
2019-05-17T04:30:54.988Z,21.07
2019-05-17T04:33:27.653Z,20.97
2019-05-17T04:35:57.381Z,19.37
2019-05-17T04:38:26.779Z,19.77
2019-05-17T04:40:56.315Z,21.10
2019-05-17T04:43:26.117Z,20.10
2019-05-17T04:45:55.820Z,19.95
2019-05-17T04:48:25.294Z,20.17
2019-05-17T04:50:55.486Z,19.60
2019-05-17T04:53:24.582Z,21.12
2019-05-17T04:55:54.411Z,20.52
2019-05-17T04:58:24.000Z,21.30
2019-05-17T05:00:54.791Z,20.12
2019-05-17T05:03:24.598Z,20.68
2019-05-17T05:06:02.647Z,20.00
2019-05-17T05:08:33.000Z,21.40
2019-05-17T05:11:04.710Z,21.80
2019-05-17T05:13:34.499Z,21.25
2019-05-17T05:16:06.095Z,21.33
2019-05-17T05:18:37.198Z,22.22
2019-05-17T05:21:12.894Z,22.22
2019-05-17T05:23:44.632Z,21.77
2019-05-17T05:26:15.560Z,23.02
2019-05-17T05:28:49.699Z,21.00
2019-05-17T05:31:42.798Z,22.52
2019-05-17T05:34:12.995Z,21.62
2019-05-17T05:36:44.957Z,22.62
2019-05-17T05:39:16.393Z,22.35
2019-05-17T05:41:47.899Z,21.80
2019-05-17T05:44:21.604Z,21.02
2019-05-17T05:46:55.485Z,20.30
2019-05-17T05:49:31.903Z,21.05
2019-05-17T05:52:06.163Z,20.53
2019-05-17T05:54:42.377Z,19.70
2019-05-17T05:57:13.836Z,19.60
2019-05-17T05:59:45.375Z,20.12
2019-05-17T06:02:26.702Z,19.42
2019-05-17T06:04:48.596Z,19.35
2019-05-17T06:07:22.107Z,19.35
2019-05-17T06:10:02.282Z,20.25
2019-05-17T06:12:32.226Z,20.50
2019-05-17T06:15:04.959Z,19.37
2019-05-17T06:17:37.470Z,19.85
2019-05-17T06:20:14.044Z,19.60
2019-05-17T06:22:43.832Z,18.57
2019-05-17T06:25:23.118Z,15.80
2019-05-17T06:27:52.702Z,18.50
2019-05-17T06:30:32.209Z,18.47
2019-05-17T06:33:02.605Z,17.15
2019-05-17T06:35:37.269Z,18.23
2019-05-17T06:38:08.992Z,18.20
2019-05-17T06:40:38.283Z,17.37
2019-05-17T06:43:14.678Z,17.23
2019-05-17T06:45:45.807Z,17.35
2019-05-17T06:48:17.628Z,17.17
2019-05-17T06:50:51.818Z,16.23
2019-05-17T06:53:23.479Z,17.15
2019-05-17T06:55:53.539Z,16.85
2019-05-17T06:58:23.787Z,16.62
2019-05-17T07:00:53.327Z,16.67
2019-05-17T07:03:23.624Z,16.87
2019-05-17T07:05:55.128Z,15.43
2019-05-17T07:08:26.641Z,15.05
2019-05-17T07:10:56.497Z,14.73
2019-05-17T07:13:30.090Z,14.70
2019-05-17T07:16:00.369Z,14.00
2019-05-17T07:18:30.251Z,14.43
2019-05-17T07:21:02.812Z,13.53
2019-05-17T07:23:32.160Z,13.58
2019-05-17T07:26:02.335Z,13.10
2019-05-17T07:28:32.207Z,13.62
2019-05-17T07:31:02.119Z,12.58
2019-05-17T07:33:31.900Z,9.90
2019-05-17T07:36:03.419Z,9.90
2019-05-17T07:38:32.868Z,9.20
2019-05-17T07:41:03.178Z,9.83
2019-05-17T07:43:32.511Z,9.23
2019-05-17T07:46:02.953Z,9.17
2019-05-17T07:48:32.761Z,10.43
2019-05-17T07:51:04.778Z,9.78
2019-05-17T07:53:37.155Z,11.20
2019-05-17T07:56:13.022Z,9.70
2019-05-17T07:58:45.735Z,9.93
2019-05-17T08:01:17.217Z,10.50
2019-05-17T08:03:50.393Z,10.25
2019-05-17T08:06:22.069Z,9.43
2019-05-17T08:08:54.645Z,10.08
2019-05-17T08:21:50.256Z,9.18
2019-05-17T08:24:23.502Z,9.33
2019-05-17T08:26:53.726Z,9.73
2019-05-17T08:29:29.785Z,9.45
2019-05-17T08:32:40.538Z,8.30
2019-05-17T08:35:12.099Z,8.10
2019-05-17T08:37:42.776Z,7.90
2019-05-17T08:40:19.796Z,8.20
2019-05-17T08:42:51.909Z,8.03
2019-05-17T08:45:21.987Z,7.70
2019-05-17T08:47:53.413Z,9.05
2019-05-17T08:50:26.511Z,8.85
2019-05-17T08:52:56.144Z,7.55
2019-05-17T08:55:30.380Z,7.97
2019-05-17T08:58:01.597Z,8.40
2019-05-17T09:00:32.218Z,8.03
2019-05-17T09:03:05.275Z,8.68
2019-05-17T09:05:36.025Z,8.73
2019-05-17T09:08:07.789Z,7.62
2019-05-17T09:10:36.991Z,7.80
2019-05-17T09:13:06.441Z,7.15
2019-05-17T09:15:40.265Z,7.47
2019-05-17T09:18:12.639Z,6.12
2019-05-17T09:20:49.340Z,7.12
2019-05-17T09:23:19.856Z,6.53
2019-05-17T09:25:50.153Z,6.95
2019-05-17T09:28:20.559Z,6.42
2019-05-17T09:30:50.829Z,6.92
2019-05-17T09:33:20.082Z,7.58
2019-05-17T09:35:50.119Z,7.92
2019-05-17T09:38:20.482Z,7.42
2019-05-17T09:40:51.625Z,7.17
2019-05-17T09:43:21.161Z,7.10
2019-05-17T09:45:55.908Z,7.05
2019-05-17T09:48:27.126Z,7.50
2019-05-17T09:50:56.820Z,6.50
2019-05-17T09:53:30.467Z,7.05
2019-05-17T09:56:00.477Z,6.67
2019-05-17T09:58:30.165Z,6.78
2019-05-17T10:01:01.371Z,7.17
2019-05-17T10:03:30.892Z,6.97
2019-05-17T10:06:01.014Z,5.42
2019-05-17T10:08:30.645Z,6.20
2019-05-17T10:11:08.356Z,6.72
2019-05-17T10:13:31.828Z,6.22
2019-05-17T10:16:01.211Z,4.83
2019-05-17T10:18:31.008Z,4.90
2019-05-17T10:21:00.443Z,4.87
2019-05-17T10:23:31.199Z,5.50
2019-05-17T10:26:01.059Z,5.80
2019-05-17T10:28:30.298Z,5.50
2019-05-17T10:31:02.383Z,6.15
2019-05-17T10:33:33.006Z,5.57
2019-05-17T10:36:04.480Z,5.90
2019-05-17T10:38:35.800Z,5.77
2019-05-17T10:46:10.699Z,5.03
2019-05-17T10:48:41.199Z,6.20
2019-05-17T10:51:13.517Z,5.20
2019-05-17T10:53:43.110Z,6.28
2019-05-17T10:56:13.795Z,5.53
2019-05-17T10:58:44.356Z,6.50
2019-05-17T11:01:13.888Z,7.00
2019-05-17T11:03:44.603Z,7.45
2019-05-17T11:06:14.349Z,5.83
2019-05-17T11:08:43.595Z,5.90
2019-05-17T11:11:13.543Z,6.40
2019-05-17T11:13:43.743Z,6.33
2019-05-17T11:16:13.430Z,6.13
2019-05-17T11:18:43.674Z,5.43
2019-05-17T11:41:18.427Z,4.70
2019-05-17T11:43:32.700Z,5.10
2019-05-17T11:46:01.870Z,5.00
2019-05-17T11:48:31.185Z,4.97
2019-05-17T11:51:02.575Z,5.30
2019-05-17T11:53:31.923Z,5.13
2019-05-17T11:56:02.862Z,5.40
2019-05-17T12:03:29.251Z,4.62
2019-05-17T12:05:58.433Z,4.50
2019-05-17T12:08:28.192Z,4.90
2019-05-17T12:10:59.760Z,5.17
2019-05-17T12:13:29.484Z,4.10
2019-05-17T12:15:58.622Z,5.63
2019-05-17T12:18:28.638Z,3.90
2019-05-17T12:21:01.246Z,3.97
2019-05-17T12:23:30.632Z,4.43
2019-05-17T12:25:59.929Z,4.07
2019-05-17T12:28:29.383Z,4.20
2019-05-17T12:30:58.705Z,4.27
2019-05-17T12:33:29.017Z,4.50
2019-05-17T12:36:01.147Z,4.75
2019-05-17T12:38:31.147Z,4.08
2019-05-17T12:41:01.733Z,3.50
2019-05-17T12:43:31.064Z,3.55
2019-05-17T12:46:01.689Z,4.00
2019-05-17T12:48:31.646Z,3.52
2019-05-17T12:51:01.191Z,3.43
2019-05-17T12:53:30.887Z,3.67
2019-05-17T12:56:00.764Z,4.20
2019-05-17T12:58:31.068Z,3.83
2019-05-17T13:01:02.171Z,3.83
2019-05-17T13:03:31.193Z,3.80
2019-05-17T13:06:04.230Z,3.62
2019-05-17T13:08:33.985Z,3.83
2019-05-17T13:11:03.157Z,4.12
2019-05-17T13:13:32.655Z,4.10
2019-05-17T13:16:16.925Z,3.70
2019-05-17T13:18:33.908Z,3.80
2019-05-17T13:21:03.661Z,4.10
2019-05-17T13:23:32.855Z,4.08
2019-05-17T13:26:02.065Z,3.67
2019-05-17T13:28:31.581Z,3.10
2019-05-17T13:31:01.144Z,3.17
2019-05-17T13:33:31.166Z,3.55
2019-05-17T13:36:00.306Z,3.92
2019-05-17T13:38:29.771Z,3.47
2019-05-17T13:40:58.864Z,3.30
2019-05-17T13:43:28.470Z,3.42
2019-05-17T13:45:57.834Z,3.90
2019-05-17T13:48:31.658Z,3.80
2019-05-17T13:51:01.057Z,3.12
2019-05-17T13:53:30.600Z,3.37
2019-05-17T13:56:00.475Z,3.20
2019-05-17T13:58:30.253Z,3.20
2019-05-17T14:01:00.982Z,3.40
2019-05-17T14:03:31.286Z,3.87
2019-05-17T14:06:01.066Z,3.70
2019-05-17T14:08:31.503Z,3.27
2019-05-17T14:11:01.352Z,3.03
2019-05-17T14:13:31.016Z,3.07
2019-05-17T14:16:00.638Z,2.63
2019-05-17T14:18:30.832Z,2.93
2019-05-17T14:21:02.706Z,2.63
2019-05-17T14:23:32.327Z,2.65
2019-05-17T14:26:02.057Z,2.70
2019-05-17T14:28:31.854Z,2.40
2019-05-17T14:31:01.675Z,2.87
2019-05-17T14:33:31.474Z,2.67
2019-05-17T14:36:01.466Z,2.60
2019-05-17T14:38:31.450Z,3.02
2019-05-17T14:41:06.493Z,2.80
2019-05-17T14:43:32.060Z,2.52
2019-05-17T14:46:01.479Z,2.70
2019-05-17T14:48:35.048Z,2.30
2019-05-17T14:51:05.414Z,2.50
2019-05-17T14:53:34.697Z,2.77
2019-05-17T14:56:03.899Z,2.53
2019-05-17T14:58:33.101Z,2.15
2019-05-17T15:01:02.923Z,2.20
2019-05-17T15:03:33.300Z,2.50
2019-05-17T15:06:04.362Z,2.25
2019-05-17T15:08:33.635Z,2.60
2019-05-17T15:11:03.103Z,2.60
2019-05-17T15:13:32.943Z,2.50
2019-05-17T15:16:02.439Z,2.40
2019-05-17T15:18:32.418Z,2.22
2019-05-17T15:21:02.065Z,2.10
2019-05-17T15:23:31.338Z,2.15
2019-05-17T15:26:00.945Z,2.17
2019-05-17T15:28:30.465Z,2.40
2019-05-17T15:31:00.121Z,2.20
2019-05-17T15:33:29.297Z,1.95
2019-05-17T15:35:59.863Z,2.08
2019-05-17T15:38:30.119Z,1.83
2019-05-17T15:40:59.728Z,2.08
2019-05-17T15:43:29.517Z,2.22
2019-05-17T15:45:59.722Z,2.10
2019-05-17T15:48:29.446Z,1.90
2019-05-17T15:50:59.142Z,1.85
2019-05-17T15:53:29.728Z,2.00
2019-05-17T15:55:59.173Z,2.00
2019-05-17T15:58:28.450Z,1.65
2019-05-17T16:00:58.007Z,1.80
2019-05-17T16:03:27.310Z,2.00
2019-05-17T16:05:56.851Z,2.12
2019-05-17T16:08:29.460Z,1.90
2019-05-17T16:10:58.047Z,1.55
2019-05-17T16:13:27.598Z,1.70
2019-05-17T16:15:56.817Z,2.10
2019-05-17T16:18:26.194Z,1.98
2019-05-17T16:20:56.003Z,1.55
2019-05-17T16:23:28.857Z,1.50
2019-05-17T16:25:58.570Z,1.77
2019-05-17T16:28:28.244Z,1.80
2019-05-17T16:30:58.345Z,1.90
2019-05-17T16:33:28.669Z,1.95
2019-05-17T16:35:58.192Z,1.92
2019-05-17T16:38:27.809Z,1.75
2019-05-17T16:40:57.916Z,1.75
2019-05-17T16:43:27.403Z,1.65
2019-05-17T16:45:57.062Z,2.17
2019-05-17T16:48:26.646Z,2.25
2019-05-17T16:50:56.563Z,2.17
2019-05-17T16:53:26.428Z,1.70
2019-05-17T16:55:55.803Z,2.00
2019-05-17T16:58:25.707Z,2.40
2019-05-17T17:00:55.457Z,1.75
2019-05-17T17:03:25.083Z,2.00
2019-05-17T17:05:55.082Z,2.07
2019-05-17T17:08:25.025Z,1.80
2019-05-17T17:10:54.512Z,2.20
2019-05-17T17:13:32.696Z,2.08
2019-05-17T17:15:55.542Z,2.10
2019-05-17T17:18:28.436Z,1.90
2019-05-17T17:20:57.691Z,2.10
2019-05-17T17:23:27.786Z,2.20
2019-05-17T17:25:57.459Z,2.40
2019-05-17T17:28:27.040Z,2.17
2019-05-17T17:30:56.239Z,2.20
2019-05-17T17:33:27.071Z,2.10
2019-05-17T17:35:59.484Z,1.90
2019-05-17T17:38:29.263Z,1.75
2019-05-17T17:40:59.368Z,2.30
2019-05-17T17:43:31.328Z,1.82
2019-05-17T17:46:04.156Z,2.30
2019-05-17T17:48:33.444Z,2.00
2019-05-17T17:51:04.398Z,2.37
2019-05-17T17:53:36.719Z,1.85
2019-05-17T17:56:06.272Z,2.15
2019-05-17T17:58:36.130Z,2.22
2019-05-17T18:01:05.483Z,2.30
2019-05-17T18:03:37.158Z,2.15
2019-05-17T18:06:07.089Z,2.20
2019-05-17T18:08:36.257Z,2.47
2019-05-17T18:11:10.053Z,2.00
2019-05-17T18:13:40.049Z,2.00
2019-05-17T18:16:09.243Z,2.22
2019-05-17T18:18:40.097Z,2.40
2019-05-17T18:21:11.209Z,2.10
2019-05-17T18:23:41.808Z,2.10
2019-05-17T18:26:11.669Z,2.17
2019-05-17T18:28:43.814Z,2.43
2019-05-17T18:31:14.988Z,2.50
2019-05-17T18:33:43.974Z,2.60
2019-05-17T18:36:15.591Z,1.90
2019-05-17T18:38:50.550Z,2.00
2019-05-17T18:41:19.734Z,2.10
2019-05-17T18:43:48.814Z,2.00
2019-05-17T18:46:18.314Z,2.10
2019-05-17T18:48:48.634Z,2.13
2019-05-17T18:58:46.642Z,2.57
2019-05-17T19:01:16.219Z,2.50
2019-05-17T19:03:45.761Z,3.07
2019-05-17T19:06:15.396Z,2.60
2019-05-17T19:08:44.774Z,2.50
2019-05-17T19:11:14.687Z,3.00
2019-05-17T19:13:43.910Z,3.30
2019-05-17T19:16:12.933Z,3.27
2019-05-17T19:18:43.241Z,2.77
2019-05-17T19:21:15.398Z,2.97
2019-05-17T19:23:51.236Z,2.90
2019-05-17T19:26:20.447Z,2.97
2019-05-17T19:28:50.243Z,2.90
2019-05-17T19:31:20.957Z,3.13
2019-05-17T19:33:50.491Z,2.70
2019-05-17T19:36:20.572Z,3.17
2019-05-17T19:38:52.109Z,4.03
2019-05-17T19:41:24.643Z,3.37
2019-05-17T19:43:53.746Z,3.20
2019-05-17T19:46:23.181Z,2.90
2019-05-17T19:48:53.183Z,3.50
2019-05-17T19:51:27.383Z,3.67
2019-05-17T19:54:04.978Z,3.27
2019-05-17T19:56:36.935Z,3.23
2019-05-17T19:59:06.965Z,2.73
2019-05-17T20:01:36.423Z,3.10
2019-05-17T20:04:08.084Z,2.80
2019-05-17T20:06:37.144Z,3.00
2019-05-17T20:09:08.423Z,2.90
2019-05-17T20:11:42.387Z,3.20
2019-05-17T20:14:16.174Z,2.70
2019-05-17T20:16:46.423Z,2.83
2019-05-17T20:19:18.960Z,4.30
2019-05-17T20:22:08.725Z,3.20
2019-05-17T20:24:37.823Z,2.67
2019-05-17T20:27:07.459Z,2.57
2019-05-17T20:29:37.731Z,2.80
2019-05-17T20:32:08.280Z,2.57
2019-05-17T20:34:39.132Z,2.73
2019-05-17T20:37:09.187Z,2.97
2019-05-17T20:39:38.316Z,2.87
2019-05-17T20:42:08.197Z,3.23
2019-05-17T20:44:42.935Z,2.67
2019-05-17T20:47:13.117Z,2.90
2019-05-17T20:49:42.741Z,3.10
2019-05-17T20:52:12.677Z,2.60
2019-05-17T20:54:45.993Z,3.07
2019-05-17T20:57:17.010Z,2.97
2019-05-17T20:59:46.503Z,3.20
2019-05-17T21:02:16.286Z,3.07
2019-05-17T21:04:46.752Z,3.57
2019-05-17T21:07:17.345Z,3.30
2019-05-17T21:09:47.434Z,4.27
2019-05-17T21:12:18.365Z,3.67
2019-05-17T21:14:47.766Z,3.20
2019-05-17T21:17:17.777Z,3.53
2019-05-17T21:19:48.144Z,3.43
2019-05-17T21:22:17.413Z,3.03
2019-05-17T21:24:46.709Z,3.73
2019-05-17T21:27:16.665Z,3.63
2019-05-17T21:29:47.723Z,3.57
2019-05-17T21:32:17.944Z,3.40
2019-05-17T21:34:47.252Z,3.40
2019-05-17T21:37:16.670Z,3.40
2019-05-17T21:39:45.743Z,3.17
2019-05-17T21:42:15.762Z,3.10
2019-05-17T21:44:44.816Z,3.70
2019-05-17T21:47:14.069Z,3.10
2019-05-17T21:49:43.679Z,3.67
2019-05-17T21:52:13.027Z,3.67
2019-05-17T21:54:43.663Z,3.20
2019-05-17T21:57:12.898Z,3.00
2019-05-17T21:59:42.439Z,3.20
2019-05-17T22:02:12.824Z,3.70
2019-05-17T22:04:42.251Z,3.13
2019-05-17T22:07:11.285Z,3.60
2019-05-17T22:09:40.597Z,3.93
2019-05-17T22:12:12.025Z,3.73
2019-05-17T22:14:41.159Z,3.70
2019-05-17T22:17:10.350Z,4.03
2019-05-17T22:19:40.320Z,3.97
2019-05-17T22:22:10.010Z,4.10
2019-05-17T22:24:40.616Z,4.20
2019-05-17T22:27:09.748Z,4.00
2019-05-17T22:29:38.922Z,4.40
2019-05-17T22:32:08.116Z,4.30
2019-05-17T22:34:37.444Z,3.40
2019-05-17T22:37:06.602Z,3.77
2019-05-17T22:39:35.622Z,4.20
2019-05-17T22:42:05.463Z,3.80
2019-05-17T22:44:35.255Z,3.90
2019-05-17T22:47:04.779Z,4.07
2019-05-17T22:49:34.508Z,3.83
2019-05-17T22:52:03.581Z,3.93
2019-05-17T22:54:33.020Z,4.50
2019-05-17T22:57:02.177Z,4.42
2019-05-17T22:59:31.462Z,4.40
2019-05-17T23:02:02.529Z,4.20
2019-05-17T23:04:32.349Z,5.08
2019-05-17T23:07:01.980Z,4.23
2019-05-17T23:09:31.068Z,3.95
2019-05-17T23:12:00.787Z,6.22
2019-05-17T23:14:30.524Z,4.25
2019-05-17T23:16:59.628Z,4.03
2019-05-17T23:19:29.015Z,4.30
2019-05-17T23:21:58.777Z,4.33
2019-05-17T23:24:29.432Z,5.50
2019-05-17T23:26:59.592Z,4.87
2019-05-17T23:29:29.495Z,4.30
2019-05-17T23:31:58.727Z,4.45
2019-05-17T23:34:37.929Z,4.45
2019-05-17T23:37:07.896Z,4.47
2019-05-17T23:39:37.519Z,4.80
2019-05-17T23:42:06.713Z,4.80
2019-05-17T23:44:36.686Z,5.92
2019-05-17T23:47:07.381Z,8.80
2019-05-17T23:49:36.833Z,6.22
2019-05-17T23:52:06.169Z,4.90
2019-05-17T23:54:35.743Z,4.58
2019-05-17T23:57:05.432Z,4.70
2019-05-17T23:59:35.377Z,4.95
